createdAt,value
2023-02-05T00:01:30.194Z,6.13
2023-02-05T00:03:57.657Z,5.80
2023-02-05T00:06:25.434Z,6.27
2023-02-05T00:08:52.842Z,5.90
2023-02-05T00:11:20.457Z,5.87
2023-02-05T00:13:47.960Z,4.60
2023-02-05T00:16:17.578Z,7.00
2023-02-05T00:18:45.770Z,5.60
2023-02-05T00:21:13.912Z,6.57
2023-02-05T00:23:41.492Z,4.67
2023-02-05T00:26:10.606Z,6.00
2023-02-05T00:28:38.903Z,4.40
2023-02-05T00:31:11.550Z,5.13
2023-02-05T00:33:39.276Z,5.60
2023-02-05T00:36:06.941Z,4.70
2023-02-05T00:38:34.522Z,6.50
2023-02-05T00:41:02.050Z,5.93
2023-02-05T00:43:29.498Z,4.50
2023-02-05T00:45:57.068Z,5.77
2023-02-05T00:48:24.552Z,5.67
2023-02-05T00:50:53.516Z,5.03
2023-02-05T00:53:21.491Z,6.37
2023-02-05T00:55:49.145Z,5.47
2023-02-05T00:58:16.949Z,5.67
2023-02-05T01:00:45.312Z,5.70
2023-02-05T01:03:13.090Z,5.00
2023-02-05T01:05:42.273Z,5.80
2023-02-05T01:08:11.887Z,5.57
2023-02-05T01:10:39.750Z,6.53
2023-02-05T01:13:07.865Z,5.67
2023-02-05T01:15:35.742Z,6.17
2023-02-05T01:18:03.391Z,5.40
2023-02-05T01:20:30.938Z,4.93
2023-02-05T01:22:58.414Z,6.10
2023-02-05T01:25:25.989Z,4.93
2023-02-05T01:27:53.443Z,5.83
2023-02-05T01:30:20.972Z,6.13
2023-02-05T01:32:49.390Z,5.77
2023-02-05T01:35:16.820Z,5.93
2023-02-05T01:37:44.309Z,5.17
2023-02-05T01:40:15.297Z,5.50
2023-02-05T01:42:42.850Z,5.47
2023-02-05T01:45:25.404Z,5.20
2023-02-05T01:48:02.522Z,4.27
2023-02-05T01:50:37.735Z,4.13
2023-02-05T01:53:10.918Z,5.00
2023-02-05T01:55:41.357Z,5.30
2023-02-05T01:58:09.803Z,4.80
2023-02-05T02:00:37.272Z,4.10
2023-02-05T02:03:04.912Z,5.60
2023-02-05T02:05:32.649Z,5.17
2023-02-05T02:08:00.421Z,5.70
2023-02-05T02:10:28.225Z,5.10
2023-02-05T02:12:55.820Z,6.30
2023-02-05T02:15:25.653Z,5.87
2023-02-05T02:17:55.693Z,5.53
2023-02-05T02:20:26.262Z,5.03
2023-02-05T02:22:56.758Z,6.13
2023-02-05T02:25:24.170Z,5.10
2023-02-05T02:27:55.623Z,5.77
2023-02-05T02:30:35.790Z,5.33
2023-02-05T02:33:09.193Z,5.60
2023-02-05T02:35:49.701Z,5.50
2023-02-05T02:38:20.699Z,7.47
2023-02-05T02:40:52.772Z,6.53
2023-02-05T02:43:59.813Z,4.13
2023-02-05T02:46:38.398Z,5.53
2023-02-05T02:49:07.474Z,4.67
2023-02-05T02:51:37.083Z,5.80
2023-02-05T02:54:07.111Z,6.57
2023-02-05T02:56:37.979Z,4.83
2023-02-05T02:59:08.104Z,5.33
2023-02-05T03:01:39.851Z,5.13
2023-02-05T03:04:10.497Z,5.67
2023-02-05T03:06:39.091Z,6.70
2023-02-05T03:09:11.784Z,5.20
2023-02-05T03:11:39.218Z,5.63
2023-02-05T03:14:06.878Z,5.30
2023-02-05T03:16:37.973Z,6.03
2023-02-05T03:19:06.449Z,5.17
2023-02-05T03:21:35.874Z,6.30
2023-02-05T03:24:03.282Z,5.20
2023-02-05T03:26:32.417Z,6.17
2023-02-05T03:29:31.877Z,6.97
2023-02-05T03:32:19.519Z,5.57
2023-02-05T03:34:50.020Z,6.60
2023-02-05T03:37:19.603Z,6.13
2023-02-05T03:40:10.910Z,5.50
2023-02-05T03:42:38.326Z,7.57
2023-02-05T03:45:08.548Z,5.37
2023-02-05T03:47:38.790Z,5.27
2023-02-05T03:50:18.470Z,7.03
2023-02-05T03:52:49.168Z,5.90
2023-02-05T03:55:20.091Z,4.27
2023-02-05T03:57:58.927Z,5.53
2023-02-05T04:00:27.788Z,6.23
2023-02-05T04:02:56.236Z,6.10
2023-02-05T04:05:28.605Z,6.67
2023-02-05T04:07:57.692Z,6.20
2023-02-05T04:10:30.729Z,6.00
2023-02-05T04:13:00.964Z,5.10
2023-02-05T04:15:29.182Z,5.77
2023-02-05T04:17:59.381Z,6.03
2023-02-05T04:20:29.312Z,6.23
2023-02-05T04:22:57.286Z,5.23
2023-02-05T04:25:26.051Z,6.73
2023-02-05T04:27:55.291Z,6.23
2023-02-05T04:30:23.505Z,6.37
2023-02-05T04:32:51.496Z,5.63
2023-02-05T04:35:19.730Z,5.97
2023-02-05T04:37:48.937Z,5.67
2023-02-05T04:40:17.180Z,5.13
2023-02-05T04:42:45.321Z,5.53
2023-02-05T04:45:12.787Z,6.50
2023-02-05T04:47:40.285Z,5.43
2023-02-05T04:50:07.816Z,5.90
2023-02-05T04:52:35.239Z,5.27
2023-02-05T04:55:02.760Z,5.87
2023-02-05T04:57:31.262Z,6.23
2023-02-05T04:59:58.718Z,6.00
2023-02-05T05:02:26.157Z,6.00
2023-02-05T05:04:53.573Z,5.40
2023-02-05T05:07:20.988Z,5.33
2023-02-05T05:09:48.411Z,7.53
2023-02-05T05:12:15.894Z,6.60
2023-02-05T05:14:43.317Z,6.10
2023-02-05T05:17:12.659Z,7.83
2023-02-05T05:19:40.089Z,6.40
2023-02-05T05:22:07.569Z,5.07
2023-02-05T05:24:34.913Z,5.27
2023-02-05T05:27:02.364Z,5.57
2023-02-05T05:29:29.854Z,6.00
2023-02-05T05:31:57.326Z,7.20
2023-02-05T05:34:24.809Z,6.60
2023-02-05T05:36:53.548Z,6.60
2023-02-05T05:39:39.499Z,6.80
2023-02-05T05:42:33.193Z,8.93
2023-02-05T05:45:00.588Z,5.00
2023-02-05T05:47:28.056Z,5.70
2023-02-05T05:49:55.513Z,6.03
2023-02-05T05:52:22.924Z,6.40
2023-02-05T05:54:50.363Z,6.47
2023-02-05T05:57:17.764Z,5.90
2023-02-05T05:59:45.127Z,5.63
2023-02-05T06:02:12.618Z,5.47
2023-02-05T06:04:40.203Z,7.13
2023-02-05T06:07:07.706Z,6.43
2023-02-05T06:09:35.315Z,6.63
2023-02-05T06:12:02.877Z,5.93
2023-02-05T06:14:30.987Z,5.63
2023-02-05T06:16:58.492Z,6.70
2023-02-05T06:19:26.219Z,6.63
2023-02-05T06:21:53.832Z,6.47
2023-02-05T06:24:21.403Z,5.83
2023-02-05T06:26:49.033Z,7.47
2023-02-05T06:29:16.589Z,6.43
2023-02-05T06:31:44.203Z,6.60
2023-02-05T06:34:11.936Z,7.70
2023-02-05T06:36:39.601Z,6.87
2023-02-05T06:39:07.984Z,6.03
2023-02-05T06:41:35.695Z,9.17
2023-02-05T06:44:04.557Z,6.53
2023-02-05T06:46:32.210Z,5.83
2023-02-05T06:48:59.629Z,6.43
2023-02-05T06:51:27.130Z,6.30
2023-02-05T06:53:57.740Z,7.40
2023-02-05T06:56:25.790Z,6.90
2023-02-05T06:58:53.163Z,5.63
2023-02-05T07:01:20.803Z,5.63
2023-02-05T07:03:48.631Z,6.87
2023-02-05T07:06:16.191Z,8.23
2023-02-05T07:08:43.618Z,5.97
2023-02-05T07:11:11.010Z,6.63
2023-02-05T07:13:38.639Z,6.37
2023-02-05T07:16:06.468Z,6.83
2023-02-05T07:18:34.638Z,7.10
2023-02-05T07:21:07.964Z,6.07
2023-02-05T07:23:36.450Z,6.10
2023-02-05T07:26:07.937Z,6.13
2023-02-05T07:28:35.501Z,5.93
2023-02-05T07:31:07.068Z,5.83
2023-02-05T07:33:36.438Z,5.53
2023-02-05T07:36:04.842Z,7.97
2023-02-05T07:38:32.898Z,7.10
2023-02-05T07:41:03.713Z,7.73
2023-02-05T07:43:32.292Z,7.30
2023-02-05T07:46:00.460Z,8.90
2023-02-05T07:48:27.929Z,9.83
2023-02-05T07:50:55.366Z,8.17
2023-02-05T07:53:22.957Z,9.33
2023-02-05T07:55:50.479Z,9.93
2023-02-05T07:58:18.084Z,10.13
2023-02-05T08:00:45.628Z,8.17
2023-02-05T08:03:13.320Z,9.07
2023-02-05T08:05:41.264Z,10.03
2023-02-05T08:08:08.680Z,10.20
2023-02-05T08:10:36.126Z,8.30
2023-02-05T08:13:03.581Z,8.50
2023-02-05T08:15:30.981Z,8.87
2023-02-05T08:17:58.400Z,8.97
2023-02-05T08:20:25.784Z,9.27
2023-02-05T08:22:53.320Z,8.03
2023-02-05T08:25:20.799Z,10.23
2023-02-05T08:27:49.273Z,10.73
2023-02-05T08:30:17.811Z,11.80
2023-02-05T08:32:48.257Z,12.43
2023-02-05T08:35:15.785Z,9.83
2023-02-05T08:37:43.246Z,10.83
2023-02-05T08:40:11.076Z,13.33
2023-02-05T08:42:38.500Z,10.10
2023-02-05T08:45:09.113Z,10.33
2023-02-05T08:47:37.013Z,10.10
2023-02-05T08:50:05.657Z,10.63
2023-02-05T08:52:33.338Z,12.10
2023-02-05T08:55:00.852Z,10.90
2023-02-05T08:57:29.215Z,11.37
2023-02-05T08:59:56.996Z,11.07
2023-02-05T09:02:27.831Z,11.10
2023-02-05T09:05:07.671Z,10.60
2023-02-05T09:07:36.911Z,11.33
2023-02-05T09:10:04.620Z,11.53
2023-02-05T09:12:31.985Z,13.50
2023-02-05T09:14:59.412Z,10.20
2023-02-05T09:17:27.376Z,11.77
2023-02-05T09:19:55.058Z,13.50
2023-02-05T09:22:22.616Z,11.10
2023-02-05T09:24:50.128Z,10.53
2023-02-05T09:27:17.807Z,11.77
2023-02-05T09:29:45.255Z,11.10
2023-02-05T09:32:13.208Z,10.53
2023-02-05T09:34:40.753Z,13.93
2023-02-05T09:37:08.163Z,13.07
2023-02-05T09:40:18.532Z,12.37
2023-02-05T09:42:28.842Z,12.83
2023-02-05T09:44:56.239Z,11.30
2023-02-05T09:47:29.774Z,13.47
2023-02-05T09:50:06.782Z,13.17
2023-02-05T09:52:37.069Z,14.37
2023-02-05T09:55:07.894Z,13.87
2023-02-05T09:57:38.160Z,12.93
2023-02-05T10:00:14.701Z,12.47
2023-02-05T10:02:51.836Z,11.87
2023-02-05T10:05:21.935Z,13.87
2023-02-05T10:08:04.738Z,14.63
2023-02-05T10:10:40.757Z,15.40
2023-02-05T10:13:27.099Z,12.07
2023-02-05T10:15:54.624Z,15.73
2023-02-05T10:18:27.417Z,12.50
2023-02-05T10:20:54.795Z,12.13
2023-02-05T10:23:34.587Z,13.00
2023-02-05T10:26:05.002Z,11.53
2023-02-05T10:28:50.824Z,11.53
2023-02-05T10:31:37.279Z,12.10
2023-02-05T10:34:07.786Z,13.13
2023-02-05T10:36:35.204Z,15.20
2023-02-05T10:39:02.985Z,11.10
2023-02-05T10:41:43.193Z,11.50
2023-02-05T10:44:10.608Z,12.33
2023-02-05T10:46:38.379Z,11.00
2023-02-05T10:49:17.766Z,13.00
2023-02-05T10:51:45.949Z,11.23
2023-02-05T10:54:16.509Z,11.30
2023-02-05T10:56:44.073Z,11.93
2023-02-05T10:59:16.978Z,10.60
2023-02-05T11:01:44.963Z,11.20
2023-02-05T11:04:14.244Z,11.00
2023-02-05T11:06:43.778Z,12.10
2023-02-05T11:09:26.431Z,11.07
2023-02-05T11:11:53.931Z,11.83
2023-02-05T11:14:32.221Z,10.47
2023-02-05T11:17:00.628Z,9.57
2023-02-05T11:19:28.745Z,10.20
2023-02-05T11:22:00.272Z,10.60
2023-02-05T11:24:39.575Z,9.97
2023-02-05T11:27:20.782Z,13.50
2023-02-05T11:29:48.300Z,9.60
2023-02-05T11:32:32.667Z,8.87
2023-02-05T11:35:19.226Z,9.43
2023-02-05T11:37:47.712Z,9.27
2023-02-05T11:40:20.127Z,9.07
2023-02-05T11:42:57.177Z,8.40
2023-02-05T11:45:25.872Z,8.07
2023-02-05T11:47:53.609Z,8.83
2023-02-05T11:50:25.315Z,8.87
2023-02-05T11:52:53.506Z,8.50
2023-02-05T11:55:32.201Z,7.10
2023-02-05T11:58:04.195Z,8.37
2023-02-05T12:00:32.069Z,8.23
2023-02-05T12:03:04.700Z,6.93
2023-02-05T12:05:33.743Z,7.63
2023-02-05T12:08:03.880Z,10.50
2023-02-05T12:10:31.363Z,7.67
2023-02-05T12:13:18.528Z,7.30
2023-02-05T12:15:50.430Z,7.33
2023-02-05T12:18:27.417Z,8.60
2023-02-05T12:21:14.338Z,8.90
2023-02-05T12:23:56.864Z,7.70
2023-02-05T12:26:33.984Z,9.27
2023-02-05T12:29:01.515Z,7.40
2023-02-05T12:31:43.713Z,8.17
2023-02-05T12:34:37.588Z,6.87
2023-02-05T12:37:07.972Z,8.03
2023-02-05T12:39:50.106Z,7.63
2023-02-05T12:42:20.667Z,8.20
2023-02-05T12:44:53.373Z,7.30
2023-02-05T12:47:31.007Z,8.07
2023-02-05T12:50:16.868Z,7.87
2023-02-05T12:52:58.703Z,8.83
2023-02-05T12:55:26.152Z,7.90
2023-02-05T12:57:55.096Z,7.20
2023-02-05T13:00:28.235Z,9.63
2023-02-05T13:03:01.877Z,6.70
2023-02-05T13:05:32.863Z,7.73
2023-02-05T13:08:09.027Z,7.33
2023-02-05T13:10:39.497Z,7.67
2023-02-05T13:13:11.707Z,7.30
2023-02-05T13:15:47.414Z,7.53
2023-02-05T13:18:14.828Z,8.17
2023-02-05T13:21:02.906Z,6.93
2023-02-05T13:23:49.430Z,8.43
2023-02-05T13:26:36.402Z,8.83
2023-02-05T13:29:08.071Z,7.17
2023-02-05T13:31:44.027Z,8.70
2023-02-05T13:34:15.543Z,7.70
2023-02-05T13:37:01.864Z,7.50
2023-02-05T13:39:49.482Z,8.60
2023-02-05T13:42:16.874Z,7.40
2023-02-05T13:44:47.263Z,7.80
2023-02-05T13:47:33.558Z,8.60
2023-02-05T13:50:00.956Z,9.00
2023-02-05T13:52:34.396Z,9.83
2023-02-05T13:55:20.650Z,8.10
2023-02-05T13:58:06.707Z,8.00
2023-02-05T14:00:34.947Z,7.20
2023-02-05T14:03:05.727Z,7.63
2023-02-05T14:05:35.692Z,8.70
2023-02-05T14:08:04.082Z,23.97
2023-02-05T14:10:33.291Z,22.27
2023-02-05T14:13:31.141Z,13.23
2023-02-05T14:16:00.508Z,10.63
2023-02-05T14:18:48.773Z,10.53
2023-02-05T14:21:31.553Z,11.70
2023-02-05T14:24:00.518Z,10.27
2023-02-05T14:26:48.390Z,14.03
2023-02-05T14:29:34.452Z,11.90
2023-02-05T14:32:01.855Z,11.03
2023-02-05T14:34:35.363Z,10.33
2023-02-05T14:37:03.017Z,8.93
2023-02-05T14:39:33.448Z,8.73
2023-02-05T14:42:05.813Z,8.00
2023-02-05T14:44:37.118Z,9.43
2023-02-05T14:47:26.389Z,10.30
2023-02-05T14:49:59.760Z,8.83
2023-02-05T14:52:34.071Z,8.43
2023-02-05T14:55:05.303Z,9.57
2023-02-05T14:57:35.806Z,8.60
2023-02-05T15:00:15.407Z,8.53
2023-02-05T15:03:02.129Z,9.73
2023-02-05T15:05:36.459Z,8.57
2023-02-05T15:08:11.321Z,9.50
2023-02-05T15:10:46.387Z,7.30
2023-02-05T15:13:16.073Z,8.00
2023-02-05T15:16:03.657Z,8.17
2023-02-05T15:18:33.641Z,8.40
2023-02-05T15:21:01.909Z,7.27
2023-02-05T15:23:39.620Z,8.53
2023-02-05T15:26:08.433Z,8.50
2023-02-05T15:28:39.451Z,8.37
2023-02-05T15:31:16.091Z,7.47
2023-02-05T15:33:53.125Z,7.80
2023-02-05T15:36:23.356Z,7.47
2023-02-05T15:38:57.490Z,8.73
2023-02-05T15:41:25.474Z,7.43
2023-02-05T15:44:00.341Z,10.63
2023-02-05T15:46:28.167Z,16.17
2023-02-05T15:48:56.063Z,9.60
2023-02-05T15:51:32.254Z,8.20
2023-02-05T15:54:01.903Z,11.13
2023-02-05T15:56:32.841Z,16.57
2023-02-05T15:59:12.534Z,14.33
2023-02-05T16:01:48.006Z,13.47
2023-02-05T16:04:32.352Z,12.17
2023-02-05T16:07:00.199Z,9.53
2023-02-05T16:09:29.171Z,10.17
2023-02-05T16:11:56.818Z,8.10
2023-02-05T16:14:25.733Z,8.93
2023-02-05T16:17:09.139Z,11.10
2023-02-05T16:19:36.544Z,10.00
2023-02-05T16:22:16.148Z,9.70
2023-02-05T16:24:44.289Z,8.23
2023-02-05T16:27:17.793Z,8.07
2023-02-05T16:29:51.363Z,8.13
2023-02-05T16:32:33.946Z,9.10
2023-02-05T16:35:03.277Z,9.13
2023-02-05T16:37:31.463Z,8.33
2023-02-05T16:40:01.210Z,7.77
2023-02-05T16:42:47.876Z,7.60
2023-02-05T16:45:20.272Z,8.87
2023-02-05T16:48:14.178Z,9.70
2023-02-05T16:50:44.789Z,8.13
2023-02-05T16:53:17.648Z,8.00
2023-02-05T16:55:45.294Z,6.57
2023-02-05T16:58:18.089Z,6.73
2023-02-05T17:00:51.965Z,7.70
2023-02-05T17:03:20.107Z,8.87
2023-02-05T17:05:54.343Z,9.33
2023-02-05T17:08:28.764Z,9.20
2023-02-05T17:10:56.939Z,7.83
2023-02-05T17:13:33.507Z,6.97
2023-02-05T17:16:19.259Z,8.43
2023-02-05T17:19:00.537Z,8.10
2023-02-05T17:21:29.321Z,7.47
2023-02-05T17:23:59.434Z,7.57
2023-02-05T17:26:28.378Z,7.13
2023-02-05T17:28:57.356Z,7.50
2023-02-05T17:31:26.533Z,8.87
2023-02-05T17:33:55.015Z,7.37
2023-02-05T17:36:22.538Z,7.57
2023-02-05T17:38:50.264Z,7.17
2023-02-05T17:41:38.084Z,7.93
2023-02-05T17:44:05.915Z,7.70
2023-02-05T17:46:33.700Z,7.23
2023-02-05T17:49:01.124Z,7.00
2023-02-05T17:51:28.893Z,8.23
2023-02-05T17:53:56.407Z,6.60
2023-02-05T17:56:23.886Z,7.33
2023-02-05T17:58:51.976Z,7.80
2023-02-05T18:01:20.049Z,7.27
2023-02-05T18:03:47.504Z,7.00
2023-02-05T18:06:16.028Z,7.63
2023-02-05T18:08:43.655Z,7.47
2023-02-05T18:11:11.371Z,9.00
2023-02-05T18:13:38.851Z,7.17
2023-02-05T18:16:06.671Z,7.13
2023-02-05T18:18:37.904Z,7.27
2023-02-05T18:21:05.892Z,6.97
2023-02-05T18:23:33.445Z,7.17
2023-02-05T18:26:01.424Z,7.43
2023-02-05T18:28:29.534Z,5.60
2023-02-05T18:31:01.401Z,7.77
2023-02-05T18:33:29.127Z,7.80
2023-02-05T18:36:00.526Z,6.27
2023-02-05T18:38:27.960Z,7.40
2023-02-05T18:40:55.380Z,6.97
2023-02-05T18:43:22.804Z,5.67
2023-02-05T18:45:50.264Z,8.60
2023-02-05T18:48:17.788Z,7.20
2023-02-05T18:50:45.181Z,6.63
2023-02-05T18:53:12.621Z,8.93
2023-02-05T18:55:40.448Z,6.67
2023-02-05T18:58:07.916Z,6.30
2023-02-05T19:00:35.617Z,6.10
2023-02-05T19:03:03.268Z,7.97
2023-02-05T19:05:31.962Z,8.27
2023-02-05T19:07:59.397Z,7.13
2023-02-05T19:10:26.807Z,6.10
2023-02-05T19:12:54.318Z,6.23
2023-02-05T19:15:21.943Z,6.07
2023-02-05T19:17:49.513Z,6.20
2023-02-05T19:20:17.241Z,6.30
2023-02-05T19:22:44.662Z,5.80
2023-02-05T19:25:12.200Z,7.07
2023-02-05T19:27:39.717Z,8.03
2023-02-05T19:30:07.370Z,7.63
2023-02-05T19:32:35.187Z,8.10
2023-02-05T19:35:03.984Z,5.90
2023-02-05T19:37:31.701Z,5.93
2023-02-05T19:39:59.115Z,5.97
2023-02-05T19:42:27.354Z,7.47
2023-02-05T19:44:54.865Z,7.27
2023-02-05T19:47:22.353Z,5.40
2023-02-05T19:49:49.764Z,6.57
2023-02-05T19:52:17.169Z,5.80
2023-02-05T19:54:44.865Z,5.97
2023-02-05T19:57:12.269Z,6.63
2023-02-05T19:59:39.667Z,6.97
2023-02-05T20:02:07.357Z,6.30
2023-02-05T20:04:34.839Z,6.03
2023-02-05T20:07:02.391Z,6.17
2023-02-05T20:09:31.911Z,6.43
2023-02-05T20:11:59.473Z,7.27
2023-02-05T20:14:26.872Z,5.83
2023-02-05T20:16:54.642Z,5.60
2023-02-05T20:19:22.291Z,6.20
2023-02-05T20:21:49.996Z,5.53
2023-02-05T20:24:17.609Z,6.20
2023-02-05T20:26:47.869Z,6.53
2023-02-05T20:29:33.752Z,6.80
2023-02-05T20:32:02.168Z,6.43
2023-02-05T20:34:35.729Z,6.77
2023-02-05T20:37:05.639Z,6.07
2023-02-05T20:39:35.273Z,6.53
2023-02-05T20:42:02.919Z,5.63
2023-02-05T20:44:31.288Z,5.73
2023-02-05T20:46:58.730Z,6.20
2023-02-05T20:49:26.365Z,6.30
2023-02-05T20:51:54.134Z,6.07
2023-02-05T20:54:22.484Z,7.80
2023-02-05T20:56:59.217Z,8.63
2023-02-05T20:59:27.350Z,6.90
2023-02-05T21:01:54.940Z,6.23
2023-02-05T21:04:22.477Z,6.13
2023-02-05T21:06:50.083Z,6.20
2023-02-05T21:09:17.843Z,7.60
2023-02-05T21:11:45.460Z,6.53
2023-02-05T21:14:12.919Z,5.93
2023-02-05T21:16:40.515Z,7.23
2023-02-05T21:19:09.236Z,5.90
2023-02-05T21:21:37.431Z,6.03
2023-02-05T21:24:07.052Z,6.47
2023-02-05T21:26:39.412Z,7.20
2023-02-05T21:29:10.327Z,6.93
2023-02-05T21:31:39.755Z,5.13
2023-02-05T21:34:08.764Z,6.70
2023-02-05T21:36:36.410Z,6.87
2023-02-05T21:39:04.303Z,6.07
2023-02-05T21:41:31.701Z,6.73
2023-02-05T21:44:00.244Z,7.43
2023-02-05T21:46:32.091Z,5.73
2023-02-05T21:49:00.399Z,6.20
2023-02-05T21:51:34.651Z,6.30
2023-02-05T21:54:03.874Z,7.10
2023-02-05T21:56:33.209Z,6.37
2023-02-05T21:59:00.714Z,7.60
2023-02-05T22:01:29.263Z,7.03
2023-02-05T22:03:58.165Z,6.47
2023-02-05T22:06:27.042Z,6.97
2023-02-05T22:08:56.149Z,9.43
2023-02-05T22:11:24.219Z,6.30
2023-02-05T22:13:53.987Z,7.23
2023-02-05T22:16:28.778Z,6.37
2023-02-05T22:18:57.290Z,7.47
2023-02-05T22:21:28.599Z,7.17
2023-02-05T22:23:57.564Z,7.00
2023-02-05T22:26:29.595Z,7.70
2023-02-05T22:28:59.249Z,9.30
2023-02-05T22:31:27.614Z,8.03
2023-02-05T22:33:55.145Z,7.97
2023-02-05T22:36:23.816Z,6.70
2023-02-05T22:38:52.042Z,7.83
2023-02-05T22:41:21.009Z,7.20
2023-02-05T22:43:48.730Z,6.90
2023-02-05T22:46:19.127Z,7.07
2023-02-05T22:48:47.370Z,7.20
2023-02-05T22:51:17.038Z,6.30
2023-02-05T22:53:44.476Z,7.33
2023-02-05T22:56:13.001Z,8.67
2023-02-05T22:58:41.817Z,7.40
2023-02-05T23:01:10.306Z,7.20
2023-02-05T23:03:38.613Z,7.23
2023-02-05T23:06:10.528Z,8.23
2023-02-05T23:08:38.195Z,6.87
2023-02-05T23:11:06.655Z,6.37
2023-02-05T23:13:34.137Z,8.83
2023-02-05T23:16:08.843Z,7.80
2023-02-05T23:18:36.620Z,7.13
2023-02-05T23:21:08.156Z,6.60
2023-02-05T23:23:35.641Z,7.93
2023-02-05T23:26:07.233Z,7.43
2023-02-05T23:28:34.635Z,7.23
2023-02-05T23:31:02.104Z,8.17
2023-02-05T23:33:29.737Z,6.87
2023-02-05T23:35:57.264Z,8.23
2023-02-05T23:38:25.164Z,8.27
2023-02-05T23:40:53.056Z,9.87
2023-02-05T23:43:21.577Z,7.37
2023-02-05T23:45:49.919Z,7.90
2023-02-05T23:48:17.562Z,7.23
2023-02-05T23:50:45.279Z,6.93
2023-02-05T23:53:12.746Z,8.20
2023-02-05T23:55:44.088Z,8.87
2023-02-05T23:58:11.877Z,9.20
